Time;durP1;ratioP1;P1;durP2;ratioP2;P2;SDS_P1;SDS_P2;PMS_P1;PMS_P2;Temp;Humidity;BMP_temperature;BMP_pressure;BME280_temperature;BME280_humidity;BME280_pressure;Samples;Min_cycle;Max_cycle;Signal;HPM_P1;HPM_P2
2021/12/26 00:01:14;;;;;;;0.63;0.63;;;-4.50;99.90;;;;;;4991359;28;20294;-88
2021/12/26 00:03:41;;;;;;;0.37;0.37;;;-4.40;99.90;;;;;;5006431;28;20815;-89
2021/12/26 00:06:29;;;;;;;0.40;0.40;;;-4.40;99.90;;;;;;4974074;28;20220;-88
2021/12/26 00:08:58;;;;;;;0.70;0.60;;;-4.40;99.90;;;;;;4989474;28;20726;-89
2021/12/26 00:11:24;;;;;;;0.30;0.30;;;-4.40;99.90;;;;;;5006851;28;20659;-88
2021/12/26 00:13:53;;;;;;;0.20;0.20;;;-4.40;99.90;;;;;;4989935;28;20865;-89
2021/12/26 00:16:19;;;;;;;0.20;0.20;;;-4.30;99.90;;;;;;4974877;28;20220;-89
2021/12/26 00:18:46;;;;;;;0.30;0.30;;;-4.30;99.90;;;;;;4989935;28;20216;-88
2021/12/26 00:21:14;;;;;;;0.40;0.40;;;-4.30;99.90;;;;;;4990522;28;20215;-90
2021/12/26 00:23:40;;;;;;;0.30;0.30;;;-4.20;99.90;;;;;;4990027;28;20188;-92
2021/12/26 00:26:06;;;;;;;1.33;0.30;;;-4.10;99.90;;;;;;4973301;28;20219;-88
2021/12/26 00:28:32;;;;;;;0.17;0.17;;;-4.10;99.90;;;;;;4956702;28;20320;-88
2021/12/26 00:30:58;;;;;;;0.10;0.10;;;-4.10;99.90;;;;;;4973782;28;20295;-88
2021/12/26 00:33:25;;;;;;;0.20;0.20;;;-4.10;99.90;;;;;;4989423;28;20226;-89
2021/12/26 00:35:51;;;;;;;0.20;0.20;;;-4.00;99.90;;;;;;4989971;28;20589;-90
2021/12/26 00:38:17;;;;;;;0.20;0.20;;;-4.00;99.90;;;;;;4973832;28;20196;-88
2021/12/26 00:40:44;;;;;;;0.20;0.20;;;-4.00;99.90;;;;;;4973439;28;20212;-88
2021/12/26 00:43:10;;;;;;;0.30;0.30;;;-4.10;99.90;;;;;;4989584;28;20684;-88
2021/12/26 00:45:36;;;;;;;0.20;0.20;;;-4.10;99.90;;;;;;4973200;28;20767;-88
2021/12/26 00:48:03;;;;;;;0.20;0.20;;;-4.10;99.90;;;;;;4989235;28;20618;-89
2021/12/26 00:50:31;;;;;;;0.30;0.30;;;-3.90;99.90;;;;;;5006924;28;20584;-88
2021/12/26 00:52:58;;;;;;;0.43;0.43;;;-3.90;99.90;;;;;;4990388;28;20303;-90
2021/12/26 00:55:24;;;;;;;0.10;0.10;;;-3.90;99.90;;;;;;4989230;28;20224;-89
2021/12/26 00:57:53;;;;;;;0.10;0.10;;;-4.00;99.90;;;;;;4972832;28;20294;-89
2021/12/26 01:00:25;;;;;;;0.20;0.20;;;-4.00;99.90;;;;;;4989169;28;21140;-90
2021/12/26 01:02:52;;;;;;;0.67;0.67;;;-4.00;99.90;;;;;;4989459;28;20204;-88
2021/12/26 01:05:19;;;;;;;0.20;0.20;;;-4.00;99.90;;;;;;4989847;28;20197;-88
2021/12/26 01:07:57;;;;;;;0.20;0.20;;;-4.10;99.90;;;;;;4990318;28;20212;-89
2021/12/26 01:10:25;;;;;;;0.10;0.10;;;-4.10;99.90;;;;;;4989554;28;20223;-88
2021/12/26 01:12:55;;;;;;;0.30;0.30;;;-4.10;99.90;;;;;;5004910;28;20626;-88
2021/12/26 01:15:23;;;;;;;0.10;0.10;;;-4.10;99.90;;;;;;4988802;28;20734;-88
2021/12/26 01:17:55;;;;;;;0.10;0.10;;;-4.20;99.90;;;;;;4989404;28;20274;-88
2021/12/26 01:23:33;;;;;;;0.10;0.10;;;-4.30;99.90;;;;;;4979997;28;20220;-90
2021/12/26 01:25:59;;;;;;;0.50;0.50;;;-4.20;99.90;;;;;;4970872;28;20184;-90
2021/12/26 01:28:29;;;;;;;0.20;0.20;;;-4.10;99.90;;;;;;4960132;28;20221;-90
2021/12/26 01:30:58;;;;;;;0.30;0.30;;;-4.10;99.90;;;;;;4973203;28;20701;-89
2021/12/26 01:33:26;;;;;;;0.23;0.23;;;-4.10;99.90;;;;;;4972386;28;21142;-90
2021/12/26 01:35:53;;;;;;;0.53;0.53;;;-4.20;99.90;;;;;;4972893;28;20207;-89
2021/12/26 01:38:19;;;;;;;0.30;0.30;;;-4.40;99.90;;;;;;4973773;28;20250;-88
2021/12/26 01:40:50;;;;;;;0.13;0.13;;;-4.50;99.90;;;;;;4988427;28;20327;-89
2021/12/26 01:43:18;;;;;;;1.33;1.33;;;-4.70;99.90;;;;;;4988098;28;20212;-88
2021/12/26 01:45:45;;;;;;;0.87;0.40;;;-4.80;99.90;;;;;;5004604;28;20220;-88
2021/12/26 01:48:12;;;;;;;0.20;0.20;;;-4.90;99.90;;;;;;4956635;28;20689;-88
2021/12/26 01:50:43;;;;;;;0.10;0.10;;;-5.00;99.90;;;;;;4972492;28;20739;-91
2021/12/26 01:53:10;;;;;;;0.30;0.30;;;-5.10;99.90;;;;;;4988718;28;20184;-92
2021/12/26 01:55:39;;;;;;;0.40;0.40;;;-5.10;99.90;;;;;;4972299;28;20684;-90
2021/12/26 01:58:09;;;;;;;0.30;0.30;;;-5.10;99.90;;;;;;4988303;28;20200;-87
2021/12/26 02:00:36;;;;;;;0.20;0.20;;;-5.10;99.90;;;;;;4989574;28;20617;-88
2021/12/26 02:03:03;;;;;;;0.40;0.40;;;-5.00;99.90;;;;;;4972300;28;20211;-88
2021/12/26 02:05:29;;;;;;;0.20;0.20;;;-4.90;99.90;;;;;;4972378;28;20200;-91
2021/12/26 02:07:55;;;;;;;0.20;0.20;;;-4.70;99.90;;;;;;4972360;28;20224;-90
2021/12/26 02:10:21;;;;;;;0.10;0.10;;;-4.60;99.90;;;;;;4971710;28;20322;-89
2021/12/26 02:12:46;;;;;;;0.30;0.30;;;-4.40;99.90;;;;;;4987900;28;20318;-88
2021/12/26 02:15:12;;;;;;;0.33;0.33;;;-4.30;99.90;;;;;;4955906;28;20232;-88
2021/12/26 02:17:38;;;;;;;0.80;0.77;;;-4.20;99.90;;;;;;4971607;28;20204;-89
2021/12/26 02:20:16;;;;;;;0.20;0.20;;;-4.20;99.90;;;;;;4972392;28;20180;-89
2021/12/26 02:22:46;;;;;;;0.20;0.20;;;-4.10;99.90;;;;;;4988329;28;20238;-89
2021/12/26 02:25:28;;;;;;;0.20;0.20;;;-4.10;99.90;;;;;;4988017;28;20291;-89
2021/12/26 02:27:54;;;;;;;0.20;0.20;;;-4.20;99.90;;;;;;4973795;28;20208;-90
2021/12/26 02:30:21;;;;;;;0.10;0.10;;;-4.30;99.90;;;;;;4987829;28;20216;-86
2021/12/26 02:32:49;;;;;;;0.20;0.20;;;-4.40;99.90;;;;;;4987361;28;20242;-88
2021/12/26 02:35:18;;;;;;;0.20;0.20;;;-4.50;99.90;;;;;;4971512;28;20192;-88
2021/12/26 02:37:44;;;;;;;0.20;0.20;;;-4.50;99.90;;;;;;4988185;28;20608;-89
2021/12/26 02:40:10;;;;;;;0.10;0.10;;;-4.60;99.90;;;;;;4988578;28;20220;-91
2021/12/26 02:42:36;;;;;;;0.20;0.20;;;-4.60;99.90;;;;;;4970867;28;20224;-89
2021/12/26 02:45:03;;;;;;;0.10;0.10;;;-4.50;99.90;;;;;;4971147;28;21427;-89
2021/12/26 02:47:37;;;;;;;0.10;0.10;;;-4.40;99.90;;;;;;4955999;28;20218;-90
2021/12/26 02:50:08;;;;;;;0.10;0.10;;;-4.40;99.90;;;;;;4987284;28;20641;-88
2021/12/26 02:52:34;;;;;;;1.33;1.23;;;-4.40;99.90;;;;;;5003257;28;20204;-89
2021/12/26 02:55:01;;;;;;;0.20;0.20;;;-4.40;99.90;;;;;;4986596;28;20583;-88
2021/12/26 02:57:27;;;;;;;0.30;0.30;;;-4.60;99.90;;;;;;4971157;28;20223;-88
2021/12/26 02:59:53;;;;;;;0.50;0.50;;;-4.70;99.90;;;;;;4987008;28;20295;-88
2021/12/26 03:02:19;;;;;;;0.23;0.23;;;-4.80;99.90;;;;;;4988075;28;20559;-88
2021/12/26 03:04:44;;;;;;;0.20;0.20;;;-4.80;99.90;;;;;;4970595;28;20211;-89
2021/12/26 03:07:10;;;;;;;0.20;0.20;;;-4.90;99.90;;;;;;4954948;28;20215;-91
2021/12/26 03:09:47;;;;;;;0.13;0.13;;;-5.00;99.90;;;;;;4970791;28;20224;-89
2021/12/26 03:12:13;;;;;;;0.10;0.10;;;-5.00;99.90;;;;;;5003259;28;20250;-89
2021/12/26 03:14:40;;;;;;;0.10;0.10;;;-5.00;99.90;;;;;;4987065;28;20243;-91
2021/12/26 03:17:07;;;;;;;0.23;0.23;;;-5.00;99.90;;;;;;4988120;28;20188;-90
2021/12/26 03:19:36;;;;;;;0.30;0.30;;;-5.10;99.90;;;;;;4986637;28;20293;-90
2021/12/26 03:22:02;;;;;;;0.10;0.10;;;-5.10;99.90;;;;;;4970593;28;20247;-89
2021/12/26 03:24:28;;;;;;;0.10;0.10;;;-5.30;99.90;;;;;;4970992;28;20216;-92
2021/12/26 03:27:03;;;;;;;0.10;0.10;;;-5.40;99.90;;;;;;4970046;28;20266;-89
2021/12/26 03:29:29;;;;;;;0.30;0.30;;;-5.30;99.90;;;;;;4971889;28;20231;-89
2021/12/26 03:31:55;;;;;;;0.20;0.20;;;-5.30;99.90;;;;;;4969844;28;20231;-89
2021/12/26 03:34:21;;;;;;;0.37;0.37;;;-5.10;99.90;;;;;;4969637;28;20207;-89
2021/12/26 03:36:51;;;;;;;0.10;0.10;;;-4.80;99.90;;;;;;4953451;28;20207;-91
2021/12/26 03:39:17;;;;;;;0.10;0.10;;;-4.70;99.90;;;;;;4986957;28;20286;-90
2021/12/26 03:41:43;;;;;;;0.20;0.20;;;-4.80;99.90;;;;;;4986097;28;20181;-89
2021/12/26 03:44:09;;;;;;;0.67;0.43;;;-4.90;99.90;;;;;;4987284;28;20188;-89
2021/12/26 03:46:34;;;;;;;0.10;0.10;;;-4.90;99.90;;;;;;4986579;28;20274;-90
2021/12/26 03:49:04;;;;;;;0.10;0.10;;;-4.90;99.90;;;;;;4985459;28;20220;-89
2021/12/26 03:51:33;;;;;;;0.20;0.20;;;-4.90;99.90;;;;;;4985962;28;20220;-89
2021/12/26 03:54:04;;;;;;;0.40;0.40;;;-5.00;99.90;;;;;;4986340;28;20235;-89
2021/12/26 03:56:31;;;;;;;0.20;0.20;;;-5.10;99.90;;;;;;5004006;28;20171;-89
2021/12/26 03:58:58;;;;;;;0.20;0.20;;;-5.30;99.90;;;;;;4954508;28;20582;-89
2021/12/26 04:01:25;;;;;;;0.10;0.10;;;-5.30;99.90;;;;;;4969856;28;20220;-91
2021/12/26 04:03:51;;;;;;;0.20;0.20;;;-5.30;99.90;;;;;;4969982;28;20216;-90
2021/12/26 04:06:17;;;;;;;0.27;0.27;;;-5.10;99.90;;;;;;4970497;28;20771;-88
2021/12/26 04:08:43;;;;;;;0.20;0.20;;;-4.90;99.90;;;;;;4954180;28;20579;-90
2021/12/26 04:11:09;;;;;;;0.20;0.20;;;-4.70;99.90;;;;;;4970943;28;20180;-88
2021/12/26 04:13:35;;;;;;;0.83;0.40;;;-4.60;99.90;;;;;;4969696;28;20234;-90
2021/12/26 04:16:02;;;;;;;0.30;0.30;;;-4.60;99.90;;;;;;4970751;28;20732;-88
2021/12/26 04:18:27;;;;;;;0.20;0.20;;;-4.70;99.90;;;;;;4970534;28;20215;-88
2021/12/26 04:20:53;;;;;;;0.20;0.20;;;-4.60;99.90;;;;;;4970659;28;20258;-89
2021/12/26 04:23:19;;;;;;;0.17;0.17;;;-4.50;99.90;;;;;;4955013;28;20310;-89
2021/12/26 04:25:45;;;;;;;0.10;0.10;;;-4.60;99.90;;;;;;4970049;28;20684;-89
2021/12/26 04:28:11;;;;;;;0.77;0.43;;;-4.70;99.90;;;;;;4969936;28;20247;-92
2021/12/26 04:30:38;;;;;;;0.20;0.20;;;-4.80;99.90;;;;;;4986454;28;20251;-88
2021/12/26 04:33:04;;;;;;;0.30;0.30;;;-4.90;99.90;;;;;;4985577;28;20327;-89
2021/12/26 04:35:31;;;;;;;0.20;0.20;;;-4.90;99.90;;;;;;4987124;28;20232;-89
2021/12/26 04:37:56;;;;;;;0.93;0.93;;;-4.80;99.90;;;;;;4969673;28;20215;-88
2021/12/26 04:40:22;;;;;;;0.23;0.23;;;-4.90;99.90;;;;;;4953728;28;20727;-89
2021/12/26 04:42:50;;;;;;;0.10;0.10;;;-4.90;99.90;;;;;;4953925;28;20216;-88
2021/12/26 04:45:16;;;;;;;0.30;0.30;;;-4.80;99.90;;;;;;4987999;28;20247;-88
2021/12/26 04:47:43;;;;;;;0.20;0.20;;;-4.80;99.90;;;;;;4989797;28;20271;-88
2021/12/26 04:50:15;;;;;;;0.10;0.10;;;-4.80;99.90;;;;;;4958160;28;20216;-89
2021/12/26 04:52:43;;;;;;;0.17;0.17;;;-4.80;99.90;;;;;;4989306;28;20211;-90
2021/12/26 04:55:11;;;;;;;2.77;2.67;;;-4.80;99.90;;;;;;5005107;28;20216;-89
2021/12/26 04:57:37;;;;;;;0.10;0.10;;;-4.90;99.90;;;;;;4989112;28;20302;-91
2021/12/26 05:00:15;;;;;;;0.87;0.87;;;-4.90;99.90;;;;;;4973112;28;20295;-88
2021/12/26 05:02:42;;;;;;;0.10;0.10;;;-4.90;99.90;;;;;;4989085;28;20187;-90
2021/12/26 05:05:09;;;;;;;0.20;0.20;;;-4.90;99.90;;;;;;4973232;28;20195;-90
2021/12/26 05:07:36;;;;;;;0.40;0.40;;;-5.00;99.90;;;;;;4989266;28;20736;-88
2021/12/26 05:10:04;;;;;;;0.10;0.10;;;-5.00;99.90;;;;;;4972233;28;20564;-88
2021/12/26 05:12:30;;;;;;;0.17;0.17;;;-4.90;99.90;;;;;;4989786;28;20208;-90
2021/12/26 05:14:56;;;;;;;0.10;0.10;;;-4.90;99.90;;;;;;4956668;28;20235;-89
2021/12/26 05:17:21;;;;;;;0.10;0.10;;;-4.90;99.90;;;;;;4989392;28;20188;-88
2021/12/26 05:19:47;;;;;;;0.40;0.40;;;-4.90;99.90;;;;;;4972410;28;20305;-92
2021/12/26 05:22:13;;;;;;;0.20;0.20;;;-4.90;99.90;;;;;;4972431;28;20904;-88
2021/12/26 05:24:39;;;;;;;0.20;0.20;;;-5.00;99.90;;;;;;4971814;28;20222;-90
2021/12/26 05:27:05;;;;;;;0.20;0.20;;;-5.00;99.90;;;;;;4947364;28;20209;-89
2021/12/26 05:29:31;;;;;;;1.30;0.67;;;-5.10;99.90;;;;;;4978441;28;20218;-88
2021/12/26 05:31:57;;;;;;;0.43;0.43;;;-5.20;99.90;;;;;;4962556;28;20216;-89
2021/12/26 05:34:23;;;;;;;0.20;0.20;;;-5.20;99.90;;;;;;4961653;28;20234;-89
2021/12/26 05:36:48;;;;;;;0.20;0.20;;;-5.30;99.90;;;;;;4962132;28;20215;-90
2021/12/26 05:39:14;;;;;;;0.30;0.30;;;-5.20;99.90;;;;;;4963068;28;20666;-89
2021/12/26 05:41:41;;;;;;;0.20;0.20;;;-5.10;99.90;;;;;;4963468;28;20597;-90
2021/12/26 05:44:08;;;;;;;0.23;0.23;;;-5.10;99.90;;;;;;4946716;28;20246;-89
2021/12/26 05:46:36;;;;;;;0.20;0.20;;;-5.10;99.90;;;;;;4971046;28;21316;-89
2021/12/26 05:49:01;;;;;;;0.37;0.37;;;-5.10;99.90;;;;;;4945688;28;20299;-88
2021/12/26 05:51:27;;;;;;;1.13;1.03;;;-5.10;99.90;;;;;;4962602;28;20679;-88
2021/12/26 05:53:53;;;;;;;0.10;0.10;;;-5.10;99.90;;;;;;4961173;28;20247;-90
2021/12/26 05:56:19;;;;;;;0.20;0.20;;;-5.10;99.90;;;;;;4945577;28;20177;-89
2021/12/26 05:58:45;;;;;;;0.20;0.20;;;-5.10;99.90;;;;;;4977037;28;20219;-88
2021/12/26 06:01:11;;;;;;;0.13;0.13;;;-5.10;99.90;;;;;;4962765;28;20752;-89
2021/12/26 06:03:37;;;;;;;0.10;0.10;;;-5.20;99.90;;;;;;4962496;28;20306;-88
2021/12/26 06:06:04;;;;;;;0.20;0.20;;;-5.20;99.90;;;;;;4945284;28;20212;-89
2021/12/26 06:08:29;;;;;;;0.27;0.27;;;-5.30;99.90;;;;;;4978226;28;20637;-89
2021/12/26 06:10:55;;;;;;;0.20;0.20;;;-5.30;99.90;;;;;;4978594;28;20239;-89
2021/12/26 06:13:21;;;;;;;0.20;0.20;;;-5.10;99.90;;;;;;4961253;28;20554;-89
2021/12/26 06:15:47;;;;;;;0.17;0.17;;;-5.00;99.90;;;;;;4961608;28;20231;-89
2021/12/26 06:18:12;;;;;;;0.20;0.20;;;-5.00;99.90;;;;;;4962128;28;20228;-88
2021/12/26 06:20:38;;;;;;;0.20;0.20;;;-4.90;99.90;;;;;;4970172;28;20235;-88
2021/12/26 06:23:04;;;;;;;0.20;0.20;;;-5.00;99.90;;;;;;4961040;28;20308;-89
2021/12/26 06:25:31;;;;;;;0.20;0.20;;;-5.00;99.90;;;;;;4961082;28;20220;-89
2021/12/26 06:27:57;;;;;;;0.20;0.20;;;-5.00;99.90;;;;;;4975568;28;20222;-90
2021/12/26 06:30:22;;;;;;;0.13;0.13;;;-5.10;99.90;;;;;;4944496;28;20232;-89
2021/12/26 06:32:51;;;;;;;0.20;0.20;;;-5.00;99.90;;;;;;4945054;28;20643;-89
2021/12/26 06:35:19;;;;;;;0.20;0.20;;;-4.90;99.90;;;;;;4960768;28;20200;-89
2021/12/26 06:37:45;;;;;;;0.20;0.20;;;-4.90;99.90;;;;;;4978014;28;20244;-89
2021/12/26 06:40:12;;;;;;;0.10;0.10;;;-5.00;99.90;;;;;;4960407;28;20820;-88
2021/12/26 06:42:42;;;;;;;0.23;0.23;;;-5.10;99.90;;;;;;4963065;28;20224;-89
2021/12/26 06:45:11;;;;;;;0.17;0.17;;;-5.20;99.90;;;;;;4978274;28;20221;-89
2021/12/26 06:47:40;;;;;;;0.20;0.20;;;-5.20;99.90;;;;;;4977088;28;20196;-89
2021/12/26 06:50:09;;;;;;;0.33;0.33;;;-5.40;99.90;;;;;;4976344;28;20188;-90
2021/12/26 06:52:35;;;;;;;1.40;0.60;;;-5.30;99.90;;;;;;4945805;28;20720;-89
2021/12/26 06:55:01;;;;;;;0.97;0.60;;;-5.30;99.90;;;;;;4959733;28;20216;-89
2021/12/26 06:57:26;;;;;;;0.10;0.10;;;-5.20;99.90;;;;;;4977204;28;20219;-88
2021/12/26 06:59:52;;;;;;;0.37;0.37;;;-5.20;99.90;;;;;;4960805;28;20222;-90
2021/12/26 07:02:18;;;;;;;0.73;0.30;;;-5.20;99.90;;;;;;4961513;28;20200;-90
2021/12/26 07:04:44;;;;;;;0.10;0.10;;;-5.30;99.90;;;;;;4960800;28;20216;-88
2021/12/26 07:07:09;;;;;;;0.10;0.10;;;-5.40;99.90;;;;;;4960505;28;20297;-89
2021/12/26 07:09:35;;;;;;;0.10;0.10;;;-5.40;99.90;;;;;;4945740;28;20232;-88
2021/12/26 07:12:01;;;;;;;0.20;0.20;;;-5.40;99.90;;;;;;4976407;28;20682;-88
2021/12/26 07:14:27;;;;;;;0.20;0.20;;;-5.40;99.90;;;;;;4945208;28;21256;-90
2021/12/26 07:16:52;;;;;;;0.10;0.10;;;-5.30;99.90;;;;;;4953078;28;20248;-91
2021/12/26 07:19:18;;;;;;;0.10;0.10;;;-5.20;99.90;;;;;;4944277;28;20219;-89
2021/12/26 07:21:44;;;;;;;0.17;0.17;;;-5.10;99.90;;;;;;4961637;28;20348;-88
2021/12/26 07:24:10;;;;;;;0.23;0.23;;;-5.00;99.90;;;;;;4976107;28;20223;-88
2021/12/26 07:26:36;;;;;;;0.10;0.10;;;-5.00;99.90;;;;;;4979662;28;20185;-89
2021/12/26 07:29:02;;;;;;;0.20;0.20;;;-5.00;99.90;;;;;;4986425;28;20303;-88
2021/12/26 07:31:28;;;;;;;0.20;0.20;;;-4.90;99.90;;;;;;4985412;28;20307;-87
2021/12/26 07:33:54;;;;;;;0.20;0.20;;;-5.00;99.90;;;;;;4961129;28;20212;-89
2021/12/26 07:36:20;;;;;;;0.10;0.10;;;-5.00;99.90;;;;;;4959822;28;21077;-88
2021/12/26 07:38:46;;;;;;;0.20;0.20;;;-5.00;99.90;;;;;;4975152;28;20283;-88
2021/12/26 07:41:11;;;;;;;0.10;0.10;;;-5.00;99.90;;;;;;4960922;28;20243;-88
2021/12/26 07:43:37;;;;;;;1.60;0.80;;;-5.10;99.90;;;;;;4960586;28;20243;-87
2021/12/26 07:46:03;;;;;;;0.10;0.10;;;-5.10;99.90;;;;;;4960847;28;20269;-87
2021/12/26 07:48:29;;;;;;;0.10;0.10;;;-5.20;99.90;;;;;;4944140;28;20306;-88
2021/12/26 07:50:55;;;;;;;0.20;0.20;;;-5.20;99.90;;;;;;4974738;28;20741;-91
2021/12/26 07:53:24;;;;;;;0.30;0.30;;;-5.20;99.90;;;;;;4945485;28;20250;-87
2021/12/26 07:55:49;;;;;;;0.20;0.20;;;-5.10;99.90;;;;;;4975848;28;20303;-90
2021/12/26 07:58:16;;;;;;;0.20;0.20;;;-5.00;99.90;;;;;;4945352;28;20592;-90
2021/12/26 08:00:42;;;;;;;0.33;0.33;;;-4.90;99.90;;;;;;4944097;28;20211;-88
2021/12/26 08:03:08;;;;;;;0.10;0.10;;;-4.90;99.90;;;;;;4957966;28;20211;-89
2021/12/26 08:05:36;;;;;;;0.20;0.20;;;-4.90;99.90;;;;;;4958244;28;20219;-90
2021/12/26 08:08:02;;;;;;;0.20;0.20;;;-4.70;99.90;;;;;;4943488;28;20554;-89
2021/12/26 08:10:28;;;;;;;0.20;0.20;;;-4.60;99.90;;;;;;4960808;28;20231;-88
2021/12/26 08:12:54;;;;;;;0.20;0.20;;;-4.50;99.90;;;;;;4943510;28;20577;-89
2021/12/26 08:15:20;;;;;;;0.40;0.40;;;-4.40;99.90;;;;;;4944350;28;20240;-90
2021/12/26 08:17:46;;;;;;;0.20;0.20;;;-4.30;99.90;;;;;;4958411;28;20899;-86
2021/12/26 08:20:12;;;;;;;0.37;0.37;;;-4.30;99.90;;;;;;4946953;28;20194;-88
2021/12/26 08:22:38;;;;;;;0.20;0.20;;;-4.20;99.90;;;;;;4963853;28;20216;-89
2021/12/26 08:25:04;;;;;;;0.10;0.10;;;-4.10;99.90;;;;;;4947525;28;20218;-90
2021/12/26 08:27:32;;;;;;;2.97;2.87;;;-4.00;99.90;;;;;;4963707;28;20219;-87
2021/12/26 08:29:59;;;;;;;0.27;0.27;;;-4.00;99.90;;;;;;4978325;28;20262;-89
2021/12/26 08:32:25;;;;;;;0.20;0.20;;;-4.00;99.90;;;;;;4963735;28;20244;-88
2021/12/26 08:34:52;;;;;;;0.40;0.40;;;-4.00;99.90;;;;;;4963406;28;20232;-91
2021/12/26 08:37:18;;;;;;;0.20;0.20;;;-3.90;99.90;;;;;;4949283;28;20593;-91
2021/12/26 08:39:44;;;;;;;1.33;0.93;;;-3.90;99.90;;;;;;4964028;28;20233;-87
2021/12/26 08:42:12;;;;;;;0.20;0.20;;;-3.90;99.90;;;;;;4978105;28;20747;-87
2021/12/26 08:44:38;;;;;;;0.20;0.20;;;-3.90;99.90;;;;;;4979390;28;20195;-91
2021/12/26 08:47:06;;;;;;;0.30;0.30;;;-3.80;99.90;;;;;;4979722;28;20761;-87
2021/12/26 08:49:32;;;;;;;0.20;0.20;;;-3.80;99.90;;;;;;4977450;28;20220;-88
2021/12/26 08:51:58;;;;;;;1.53;1.53;;;-3.70;99.90;;;;;;4963714;28;20207;-87
2021/12/26 08:54:26;;;;;;;0.27;0.27;;;-3.70;99.90;;;;;;4962386;28;20217;-89
2021/12/26 08:56:53;;;;;;;0.30;0.30;;;-3.60;99.90;;;;;;4963583;28;21239;-91
2021/12/26 08:59:20;;;;;;;0.10;0.10;;;-3.60;99.90;;;;;;4963211;28;20243;-87
2021/12/26 09:01:46;;;;;;;0.20;0.20;;;-3.60;99.90;;;;;;4970991;28;20739;-89
2021/12/26 09:04:13;;;;;;;0.30;0.30;;;-3.50;99.90;;;;;;4957063;28;20251;-90
2021/12/26 09:06:38;;;;;;;0.30;0.30;;;-3.50;99.90;;;;;;4989100;28;20241;-87
2021/12/26 09:09:05;;;;;;;0.23;0.23;;;-3.50;99.90;;;;;;4971983;28;20267;-88
2021/12/26 09:11:31;;;;;;;0.20;0.20;;;-3.40;99.90;;;;;;4989628;28;20196;-90
2021/12/26 09:13:57;;;;;;;0.90;0.90;;;-3.30;99.90;;;;;;5004986;28;20216;-89
2021/12/26 09:16:22;;;;;;;0.40;0.40;;;-3.30;99.90;;;;;;4956543;28;20237;-90
2021/12/26 09:18:50;;;;;;;0.40;0.40;;;-3.20;99.90;;;;;;4971335;28;20294;-90
2021/12/26 09:21:16;;;;;;;0.40;0.40;;;-3.10;99.90;;;;;;4955282;28;20220;-89
2021/12/26 09:23:42;;;;;;;0.37;0.37;;;-3.10;99.90;;;;;;4962851;28;20654;-88
2021/12/26 09:26:08;;;;;;;0.10;0.10;;;-3.00;99.90;;;;;;4962320;28;20192;-91
2021/12/26 09:28:36;;;;;;;0.93;0.93;;;-3.00;99.90;;;;;;4946356;28;20220;-89
2021/12/26 09:31:03;;;;;;;0.30;0.30;;;-2.90;99.90;;;;;;4963016;28;20737;-93
2021/12/26 09:33:29;;;;;;;0.20;0.20;;;-2.80;99.90;;;;;;4961435;28;20247;-92
2021/12/26 09:35:55;;;;;;;0.20;0.20;;;-2.80;99.90;;;;;;4977985;28;20244;-90
2021/12/26 09:38:21;;;;;;;0.50;0.50;;;-2.70;99.90;;;;;;4946259;28;20258;-90
2021/12/26 09:40:47;;;;;;;0.23;0.23;;;-2.70;99.90;;;;;;4962135;28;20684;-89
2021/12/26 09:43:14;;;;;;;1.00;1.00;;;-2.60;99.90;;;;;;4945219;28;20307;-89
2021/12/26 09:45:40;;;;;;;0.13;0.13;;;-2.60;99.90;;;;;;4978619;28;20212;-89
2021/12/26 09:48:07;;;;;;;0.20;0.20;;;-2.50;99.90;;;;;;4961899;28;20555;-89
2021/12/26 09:50:33;;;;;;;1.63;1.63;;;-2.50;99.90;;;;;;4963164;28;20220;-89
2021/12/26 09:52:58;;;;;;;0.97;0.87;;;-2.40;99.90;;;;;;4988608;28;20219;-88
2021/12/26 09:55:30;;;;;;;0.20;0.20;;;-2.40;99.90;;;;;;4970303;28;20704;-90
2021/12/26 09:57:56;;;;;;;0.17;0.17;;;-2.30;99.90;;;;;;4987772;28;20712;-89
2021/12/26 10:00:32;;;;;;;0.40;0.40;;;-2.40;99.90;;;;;;4986995;28;20216;-90
2021/12/26 10:03:23;;;;;;;0.20;0.20;;;-2.30;99.90;;;;;;4987429;28;20254;-89
2021/12/26 10:06:17;;;;;;;0.20;0.20;;;-2.20;99.90;;;;;;4987415;28;20271;-87
2021/12/26 10:09:05;;;;;;;0.60;0.60;;;-2.20;99.90;;;;;;4988342;28;20254;-90
2021/12/26 10:11:40;;;;;;;0.73;0.73;;;-2.20;99.90;;;;;;4988327;28;20221;-89
2021/12/26 10:14:08;;;;;;;0.97;0.97;;;-2.20;99.90;;;;;;4987573;28;20302;-88
2021/12/26 10:16:44;;;;;;;0.30;0.30;;;-2.10;99.90;;;;;;4987212;28;20267;-92
2021/12/26 10:19:11;;;;;;;3.40;1.33;;;-2.10;99.90;;;;;;4987448;28;20306;-89
2021/12/26 10:21:50;;;;;;;0.40;0.40;;;-2.00;99.90;;;;;;4972271;28;20227;-89
2021/12/26 10:24:28;;;;;;;0.27;0.27;;;-2.00;99.90;;;;;;5000923;28;20223;-89
2021/12/26 10:26:55;;;;;;;0.47;0.47;;;-1.90;99.90;;;;;;5003230;28;20219;-89
2021/12/26 10:29:33;;;;;;;0.60;0.60;;;-1.80;99.90;;;;;;5003147;28;20265;-89
2021/12/26 10:32:12;;;;;;;0.30;0.30;;;-1.80;99.90;;;;;;4986071;28;20578;-88
2021/12/26 10:34:41;;;;;;;0.63;0.63;;;-1.70;99.90;;;;;;4976862;28;20265;-86
2021/12/26 10:37:29;;;;;;;0.20;0.20;;;-1.70;99.90;;;;;;4977868;28;20250;-88
2021/12/26 10:40:00;;;;;;;0.27;0.27;;;-1.70;99.90;;;;;;4978207;28;20220;-88
2021/12/26 10:42:32;;;;;;;0.20;0.20;;;-1.70;99.90;;;;;;4975960;28;20239;-87
2021/12/26 10:45:08;;;;;;;0.63;0.63;;;-1.60;99.90;;;;;;4976981;28;20216;-88
2021/12/26 10:47:35;;;;;;;0.20;0.20;;;-1.60;99.90;;;;;;4976723;28;20196;-88
2021/12/26 10:50:07;;;;;;;2.30;2.20;;;-1.60;99.90;;;;;;4960764;28;20211;-89
2021/12/26 10:52:36;;;;;;;0.33;0.30;;;-1.50;99.90;;;;;;4992870;28;20220;-89
2021/12/26 10:55:17;;;;;;;0.20;0.20;;;-1.40;99.90;;;;;;4975754;28;20263;-89
2021/12/26 10:57:51;;;;;;;1.03;1.03;;;-1.40;99.90;;;;;;4992432;28;20205;-88
2021/12/26 11:00:25;;;;;;;0.33;0.33;;;-1.40;99.90;;;;;;4976208;28;20248;-88
2021/12/26 11:02:53;;;;;;;1.40;1.30;;;-1.30;99.90;;;;;;4978647;28;20184;-87
2021/12/26 11:05:28;;;;;;;0.30;0.30;;;-1.30;99.90;;;;;;4993576;28;20187;-88
2021/12/26 11:08:03;;;;;;;9.60;0.97;;;-1.30;99.90;;;;;;4973539;28;20735;-90
2021/12/26 11:10:39;;;;;;;1.00;0.87;;;-1.30;99.90;;;;;;4990847;28;20274;-87
2021/12/26 11:13:08;;;;;;;0.50;0.50;;;-1.20;99.90;;;;;;4975334;28;20213;-87
2021/12/26 11:15:38;;;;;;;0.30;0.30;;;-1.10;99.90;;;;;;4975952;28;20363;-88
2021/12/26 11:18:07;;;;;;;0.33;0.33;;;-1.10;99.90;;;;;;4985016;28;20232;-90
2021/12/26 11:20:38;;;;;;;0.23;0.23;;;-1.00;99.90;;;;;;4976167;28;20184;-86
2021/12/26 11:23:17;;;;;;;0.83;0.83;;;-1.00;99.90;;;;;;4986119;28;20227;-87
2021/12/26 11:25:53;;;;;;;1.67;1.57;;;-1.00;99.90;;;;;;5003063;28;20234;-88
2021/12/26 11:28:26;;;;;;;1.07;0.97;;;-1.00;99.90;;;;;;4985928;28;20579;-87
2021/12/26 11:31:03;;;;;;;0.70;0.70;;;-0.90;99.90;;;;;;5002401;28;20259;-85
2021/12/26 11:33:29;;;;;;;0.40;0.40;;;-0.80;99.90;;;;;;4986376;28;20680;-88
2021/12/26 11:35:56;;;;;;;0.30;0.30;;;-0.70;99.90;;;;;;4969451;28;20248;-89
2021/12/26 11:38:24;;;;;;;0.53;0.53;;;-0.70;99.90;;;;;;4971096;28;20660;-87
2021/12/26 11:41:06;;;;;;;0.40;0.40;;;-0.70;99.90;;;;;;4969064;28;20224;-87
2021/12/26 11:43:51;;;;;;;0.50;0.50;;;-0.60;99.90;;;;;;4970734;28;20212;-88
2021/12/26 11:46:39;;;;;;;2.10;1.97;;;-0.60;99.90;;;;;;4983730;28;21106;-87
2021/12/26 11:49:34;;;;;;;0.50;0.50;;;-0.50;99.90;;;;;;4974553;28;20643;-88
2021/12/26 11:52:17;;;;;;;0.50;0.50;;;-0.40;99.90;;;;;;4976213;28;20271;-87
2021/12/26 11:55:03;;;;;;;3.20;1.60;;;-0.40;99.90;;;;;;4983551;28;20212;-87
2021/12/26 11:57:52;;;;;;;5.40;1.17;;;-0.30;99.90;;;;;;4984439;28;20303;-87
2021/12/26 12:00:29;;;;;;;0.30;0.30;;;-0.20;99.90;;;;;;4975031;28;20216;-87
2021/12/26 12:02:58;;;;;;;0.93;0.93;;;-0.20;99.90;;;;;;4990867;28;20216;-87
2021/12/26 12:05:37;;;;;;;0.80;0.80;;;-0.10;99.90;;;;;;4976065;28;21319;-85
2021/12/26 12:08:09;;;;;;;0.43;0.43;;;-0.10;99.90;;;;;;4985423;28;20220;-86
2021/12/26 12:10:57;;;;;;;0.73;0.50;;;0.00;99.90;;;;;;5001726;28;20227;-88
2021/12/26 12:13:23;;;;;;;0.30;0.30;;;0.00;99.90;;;;;;5002119;28;20216;-84
2021/12/26 12:15:51;;;;;;;2.53;2.33;;;0.00;99.90;;;;;;4984890;28;20313;-86
2021/12/26 12:18:27;;;;;;;0.40;0.40;;;0.10;99.90;;;;;;4985829;28;20261;-87
2021/12/26 12:21:11;;;;;;;0.30;0.30;;;0.10;99.90;;;;;;4985470;28;20606;-86
2021/12/26 12:24:02;;;;;;;0.70;0.70;;;0.20;99.90;;;;;;4985782;28;20199;-86
2021/12/26 12:26:53;;;;;;;0.60;0.60;;;0.20;99.90;;;;;;4985789;28;20200;-87
2021/12/26 12:29:24;;;;;;;0.53;0.53;;;0.20;99.90;;;;;;4984836;28;20232;-88
2021/12/26 12:32:08;;;;;;;0.50;0.50;;;0.20;99.90;;;;;;4985559;28;20238;-86
2021/12/26 12:34:48;;;;;;;3.43;3.13;;;0.20;99.90;;;;;;5001302;28;20255;-87
2021/12/26 12:37:35;;;;;;;0.50;0.50;;;0.30;99.90;;;;;;4986205;28;20220;-88
2021/12/26 12:40:33;;;;;;;0.47;0.47;;;0.40;99.90;;;;;;5000952;28;20242;-88
2021/12/26 12:43:10;;;;;;;0.30;0.30;;;0.40;99.90;;;;;;4979373;28;20211;-86
2021/12/26 12:45:51;;;;;;;0.73;0.73;;;0.70;99.90;;;;;;4985282;28;20247;-87
2021/12/26 12:48:29;;;;;;;1.47;1.47;;;1.40;99.90;;;;;;4985689;28;20223;-85
2021/12/26 12:51:15;;;;;;;0.80;0.80;;;1.80;99.90;;;;;;4984513;28;20598;-88
2021/12/26 12:53:51;;;;;;;0.40;0.40;;;1.90;99.90;;;;;;4985390;28;20188;-85
2021/12/26 12:56:33;;;;;;;0.40;0.40;;;1.40;99.90;;;;;;4985469;28;20184;-86
2021/12/26 12:59:14;;;;;;;0.50;0.50;;;1.10;99.90;;;;;;4985107;28;20286;-85
2021/12/26 13:01:46;;;;;;;0.70;0.70;;;0.80;99.90;;;;;;5001513;28;20215;-85